sensor_id;sensor_type;location;lat;lon;timestamp;P1;P2;P0
49644;PMS5003;36494;50.730;-1.932;2022-12-04T00:00:35;55;53;
49644;PMS5003;36494;50.730;-1.932;2022-12-04T00:03:01;66;61;
49644;PMS5003;36494;50.730;-1.932;2022-12-04T00:05:26;68;65;
49644;PMS5003;36494;50.730;-1.932;2022-12-04T00:07:52;48;44;
49644;PMS5003;36494;50.730;-1.932;2022-12-04T00:10:18;44;43;
49644;PMS5003;36494;50.730;-1.932;2022-12-04T00:12:44;47;43;
49644;PMS5003;36494;50.730;-1.932;2022-12-04T00:15:09;52;48;
49644;PMS5003;36494;50.730;-1.932;2022-12-04T00:17:34;50;46;
49644;PMS5003;36494;50.730;-1.932;2022-12-04T00:19:59;34;34;
49644;PMS5003;36494;50.730;-1.932;2022-12-04T00:22:25;44;41;
49644;PMS5003;36494;50.730;-1.932;2022-12-04T00:24:50;39;37;
49644;PMS5003;36494;50.730;-1.932;2022-12-04T00:27:16;47;45;
49644;PMS5003;36494;50.730;-1.932;2022-12-04T00:29:42;46;44;
49644;PMS5003;36494;50.730;-1.932;2022-12-04T00:32:07;43;42;
49644;PMS5003;36494;50.730;-1.932;2022-12-04T00:34:33;51;49;
49644;PMS5003;36494;50.730;-1.932;2022-12-04T00:36:58;50;48;
49644;PMS5003;36494;50.730;-1.932;2022-12-04T00:39:24;47;44;
49644;PMS5003;36494;50.730;-1.932;2022-12-04T00:41:49;45;42;
49644;PMS5003;36494;50.730;-1.932;2022-12-04T00:44:15;53;52;
49644;PMS5003;36494;50.730;-1.932;2022-12-04T00:46:40;49;47;
49644;PMS5003;36494;50.730;-1.932;2022-12-04T00:49:06;57;50;
49644;PMS5003;36494;50.730;-1.932;2022-12-04T00:51:31;44;43;
49644;PMS5003;36494;50.730;-1.932;2022-12-04T00:53:56;49;47;
49644;PMS5003;36494;50.730;-1.932;2022-12-04T00:56:22;47;43;
49644;PMS5003;36494;50.730;-1.932;2022-12-04T00:58:47;51;48;
49644;PMS5003;36494;50.730;-1.932;2022-12-04T01:01:13;36;33;
49644;PMS5003;36494;50.730;-1.932;2022-12-04T01:03:37;53;50;
49644;PMS5003;36494;50.730;-1.932;2022-12-04T01:06:03;45;40;
49644;PMS5003;36494;50.730;-1.932;2022-12-04T01:08:28;41;40;
49644;PMS5003;36494;50.730;-1.932;2022-12-04T01:10:54;47;46;
49644;PMS5003;36494;50.730;-1.932;2022-12-04T01:13:19;47;43;
49644;PMS5003;36494;50.730;-1.932;2022-12-04T01:15:44;38;37;
49644;PMS5003;36494;50.730;-1.932;2022-12-04T01:18:10;58;56;
49644;PMS5003;36494;50.730;-1.932;2022-12-04T01:20:35;53;49;
49644;PMS5003;36494;50.730;-1.932;2022-12-04T01:23:00;44;43;
49644;PMS5003;36494;50.730;-1.932;2022-12-04T01:25:26;42;39;
49644;PMS5003;36494;50.730;-1.932;2022-12-04T01:27:51;45;42;
49644;PMS5003;36494;50.730;-1.932;2022-12-04T01:30:16;38;35;
49644;PMS5003;36494;50.730;-1.932;2022-12-04T01:32:41;47;44;
49644;PMS5003;36494;50.730;-1.932;2022-12-04T01:35:07;47;45;
49644;PMS5003;36494;50.730;-1.932;2022-12-04T01:37:33;36;32;
49644;PMS5003;36494;50.730;-1.932;2022-12-04T01:39:58;41;39;
49644;PMS5003;36494;50.730;-1.932;2022-12-04T01:42:24;41;39;
49644;PMS5003;36494;50.730;-1.932;2022-12-04T01:47:14;39;38;
49644;PMS5003;36494;50.730;-1.932;2022-12-04T01:49:42;43;40;
49644;PMS5003;36494;50.730;-1.932;2022-12-04T01:52:06;38;38;
49644;PMS5003;36494;50.730;-1.932;2022-12-04T01:54:32;47;42;
49644;PMS5003;36494;50.730;-1.932;2022-12-04T01:56:57;43;42;
49644;PMS5003;36494;50.730;-1.932;2022-12-04T01:59:22;39;37;
49644;PMS5003;36494;50.730;-1.932;2022-12-04T02:01:48;42;38;
49644;PMS5003;36494;50.730;-1.932;2022-12-04T02:04:12;44;43;
49644;PMS5003;36494;50.730;-1.932;2022-12-04T02:06:38;50;48;
49644;PMS5003;36494;50.730;-1.932;2022-12-04T02:09:03;45;43;
49644;PMS5003;36494;50.730;-1.932;2022-12-04T02:11:30;43;41;
49644;PMS5003;36494;50.730;-1.932;2022-12-04T02:13:56;38;37;
49644;PMS5003;36494;50.730;-1.932;2022-12-04T02:16:21;44;42;
49644;PMS5003;36494;50.730;-1.932;2022-12-04T02:18:46;39;37;
49644;PMS5003;36494;50.730;-1.932;2022-12-04T02:21:11;40;38;
49644;PMS5003;36494;50.730;-1.932;2022-12-04T02:23:41;45;43;
49644;PMS5003;36494;50.730;-1.932;2022-12-04T02:26:05;54;48;
49644;PMS5003;36494;50.730;-1.932;2022-12-04T02:28:27;40;38;
49644;PMS5003;36494;50.730;-1.932;2022-12-04T02:30:54;39;37;
49644;PMS5003;36494;50.730;-1.932;2022-12-04T02:33:18;36;36;
49644;PMS5003;36494;50.730;-1.932;2022-12-04T02:35:43;41;38;
49644;PMS5003;36494;50.730;-1.932;2022-12-04T02:38:09;50;48;
49644;PMS5003;36494;50.730;-1.932;2022-12-04T02:40:35;51;50;
49644;PMS5003;36494;50.730;-1.932;2022-12-04T02:42:59;46;42;
49644;PMS5003;36494;50.730;-1.932;2022-12-04T02:45:24;52;51;
49644;PMS5003;36494;50.730;-1.932;2022-12-04T02:47:48;41;39;
49644;PMS5003;36494;50.730;-1.932;2022-12-04T02:50:15;56;52;
49644;PMS5003;36494;50.730;-1.932;2022-12-04T02:52:40;52;50;
49644;PMS5003;36494;50.730;-1.932;2022-12-04T02:55:06;40;39;
49644;PMS5003;36494;50.730;-1.932;2022-12-04T02:57:32;52;50;
49644;PMS5003;36494;50.730;-1.932;2022-12-04T02:59:56;41;39;
49644;PMS5003;36494;50.730;-1.932;2022-12-04T03:02:23;36;31;
49644;PMS5003;36494;50.730;-1.932;2022-12-04T03:04:46;33;32;
49644;PMS5003;36494;50.730;-1.932;2022-12-04T03:07:12;42;39;
49644;PMS5003;36494;50.730;-1.932;2022-12-04T03:09:38;39;35;
49644;PMS5003;36494;50.730;-1.932;2022-12-04T03:12:05;33;31;
49644;PMS5003;36494;50.730;-1.932;2022-12-04T03:14:27;50;48;
49644;PMS5003;36494;50.730;-1.932;2022-12-04T03:16:54;47;46;
49644;PMS5003;36494;50.730;-1.932;2022-12-04T03:19:19;36;36;
49644;PMS5003;36494;50.730;-1.932;2022-12-04T03:21:45;43;41;
49644;PMS5003;36494;50.730;-1.932;2022-12-04T03:24:11;40;38;
49644;PMS5003;36494;50.730;-1.932;2022-12-04T03:26:36;44;43;
49644;PMS5003;36494;50.730;-1.932;2022-12-04T03:29:02;43;42;
49644;PMS5003;36494;50.730;-1.932;2022-12-04T03:31:28;38;37;
49644;PMS5003;36494;50.730;-1.932;2022-12-04T03:33:50;56;55;
49644;PMS5003;36494;50.730;-1.932;2022-12-04T03:36:17;38;37;
49644;PMS5003;36494;50.730;-1.932;2022-12-04T03:38:43;41;40;
49644;PMS5003;36494;50.730;-1.932;2022-12-04T03:41:09;36;33;
49644;PMS5003;36494;50.730;-1.932;2022-12-04T03:43:33;42;40;
49644;PMS5003;36494;50.730;-1.932;2022-12-04T03:46:01;43;38;
49644;PMS5003;36494;50.730;-1.932;2022-12-04T03:48:25;60;57;
49644;PMS5003;36494;50.730;-1.932;2022-12-04T03:50:51;38;37;
49644;PMS5003;36494;50.730;-1.932;2022-12-04T03:53:15;36;35;
49644;PMS5003;36494;50.730;-1.932;2022-12-04T03:55:41;31;29;
49644;PMS5003;36494;50.730;-1.932;2022-12-04T03:58:06;39;34;
49644;PMS5003;36494;50.730;-1.932;2022-12-04T04:00:31;38;37;
49644;PMS5003;36494;50.730;-1.932;2022-12-04T04:02:57;40;39;
49644;PMS5003;36494;50.730;-1.932;2022-12-04T04:05:21;36;36;
49644;PMS5003;36494;50.730;-1.932;2022-12-04T04:07:46;26;25;
49644;PMS5003;36494;50.730;-1.932;2022-12-04T04:10:12;33;28;
49644;PMS5003;36494;50.730;-1.932;2022-12-04T04:12:38;30;29;
49644;PMS5003;36494;50.730;-1.932;2022-12-04T04:15:05;30;29;
49644;PMS5003;36494;50.730;-1.932;2022-12-04T04:17:29;26;25;
49644;PMS5003;36494;50.730;-1.932;2022-12-04T04:19:55;27;24;
49644;PMS5003;36494;50.730;-1.932;2022-12-04T04:22:19;20;19;
49644;PMS5003;36494;50.730;-1.932;2022-12-04T04:24:45;23;20;
49644;PMS5003;36494;50.730;-1.932;2022-12-04T04:27:10;21;20;
49644;PMS5003;36494;50.730;-1.932;2022-12-04T04:29:35;26;25;
49644;PMS5003;36494;50.730;-1.932;2022-12-04T04:32:02;26;25;
49644;PMS5003;36494;50.730;-1.932;2022-12-04T04:34:27;29;27;
49644;PMS5003;36494;50.730;-1.932;2022-12-04T04:36:53;24;23;
49644;PMS5003;36494;50.730;-1.932;2022-12-04T04:39:18;24;23;
49644;PMS5003;36494;50.730;-1.932;2022-12-04T04:41:43;24;22;
49644;PMS5003;36494;50.730;-1.932;2022-12-04T04:44:10;25;24;
49644;PMS5003;36494;50.730;-1.932;2022-12-04T04:46:33;27;26;
49644;PMS5003;36494;50.730;-1.932;2022-12-04T04:48:59;27;26;
49644;PMS5003;36494;50.730;-1.932;2022-12-04T04:51:24;25;23;
49644;PMS5003;36494;50.730;-1.932;2022-12-04T04:53:50;32;29;
49644;PMS5003;36494;50.730;-1.932;2022-12-04T04:56:14;30;28;
49644;PMS5003;36494;50.730;-1.932;2022-12-04T04:58:40;28;25;
49644;PMS5003;36494;50.730;-1.932;2022-12-04T05:01:06;31;28;
49644;PMS5003;36494;50.730;-1.932;2022-12-04T05:03:31;28;25;
49644;PMS5003;36494;50.730;-1.932;2022-12-04T05:05:56;25;24;
49644;PMS5003;36494;50.730;-1.932;2022-12-04T05:08:21;31;29;
49644;PMS5003;36494;50.730;-1.932;2022-12-04T05:10:46;31;30;
49644;PMS5003;36494;50.730;-1.932;2022-12-04T05:13:12;30;29;
49644;PMS5003;36494;50.730;-1.932;2022-12-04T05:15:37;29;26;
49644;PMS5003;36494;50.730;-1.932;2022-12-04T05:18:02;31;29;
49644;PMS5003;36494;50.730;-1.932;2022-12-04T05:20:27;29;27;
49644;PMS5003;36494;50.730;-1.932;2022-12-04T05:22:52;32;31;
49644;PMS5003;36494;50.730;-1.932;2022-12-04T05:25:18;33;32;
49644;PMS5003;36494;50.730;-1.932;2022-12-04T05:27:43;33;32;
49644;PMS5003;36494;50.730;-1.932;2022-12-04T05:30:10;31;26;
49644;PMS5003;36494;50.730;-1.932;2022-12-04T05:32:34;38;34;
49644;PMS5003;36494;50.730;-1.932;2022-12-04T05:35:00;34;33;
49644;PMS5003;36494;50.730;-1.932;2022-12-04T05:37:25;35;32;
49644;PMS5003;36494;50.730;-1.932;2022-12-04T05:39:51;29;27;
49644;PMS5003;36494;50.730;-1.932;2022-12-04T05:42:16;27;26;
49644;PMS5003;36494;50.730;-1.932;2022-12-04T05:44:41;36;34;
49644;PMS5003;36494;50.730;-1.932;2022-12-04T05:47:06;30;29;
49644;PMS5003;36494;50.730;-1.932;2022-12-04T05:49:32;36;35;
49644;PMS5003;36494;50.730;-1.932;2022-12-04T05:51:57;29;28;
49644;PMS5003;36494;50.730;-1.932;2022-12-04T05:54:22;36;33;
49644;PMS5003;36494;50.730;-1.932;2022-12-04T05:56:48;39;36;
49644;PMS5003;36494;50.730;-1.932;2022-12-04T05:59:14;28;26;
49644;PMS5003;36494;50.730;-1.932;2022-12-04T06:01:39;37;35;
49644;PMS5003;36494;50.730;-1.932;2022-12-04T06:04:05;32;29;
49644;PMS5003;36494;50.730;-1.932;2022-12-04T06:06:30;30;28;
49644;PMS5003;36494;50.730;-1.932;2022-12-04T06:08:56;35;33;
49644;PMS5003;36494;50.730;-1.932;2022-12-04T06:11:22;31;30;
49644;PMS5003;36494;50.730;-1.932;2022-12-04T06:13:47;41;36;
49644;PMS5003;36494;50.730;-1.932;2022-12-04T06:16:13;31;29;
49644;PMS5003;36494;50.730;-1.932;2022-12-04T06:18:38;33;32;
49644;PMS5003;36494;50.730;-1.932;2022-12-04T06:21:03;34;32;
49644;PMS5003;36494;50.730;-1.932;2022-12-04T06:23:29;37;34;
49644;PMS5003;36494;50.730;-1.932;2022-12-04T06:25:54;35;34;
49644;PMS5003;36494;50.730;-1.932;2022-12-04T06:28:20;39;37;
49644;PMS5003;36494;50.730;-1.932;2022-12-04T06:30:45;33;31;
49644;PMS5003;36494;50.730;-1.932;2022-12-04T06:33:10;38;36;
49644;PMS5003;36494;50.730;-1.932;2022-12-04T06:35:36;37;34;
49644;PMS5003;36494;50.730;-1.932;2022-12-04T06:38:02;36;33;
49644;PMS5003;36494;50.730;-1.932;2022-12-04T06:40:27;36;34;
49644;PMS5003;36494;50.730;-1.932;2022-12-04T06:42:53;32;30;
49644;PMS5003;36494;50.730;-1.932;2022-12-04T06:45:18;47;42;
49644;PMS5003;36494;50.730;-1.932;2022-12-04T06:47:44;36;32;
49644;PMS5003;36494;50.730;-1.932;2022-12-04T06:50:09;41;36;
49644;PMS5003;36494;50.730;-1.932;2022-12-04T06:52:35;39;35;
49644;PMS5003;36494;50.730;-1.932;2022-12-04T06:55:00;34;32;
49644;PMS5003;36494;50.730;-1.932;2022-12-04T06:57:26;40;39;
49644;PMS5003;36494;50.730;-1.932;2022-12-04T06:59:51;39;37;
49644;PMS5003;36494;50.730;-1.932;2022-12-04T07:02:17;38;37;
49644;PMS5003;36494;50.730;-1.932;2022-12-04T07:04:42;33;32;
49644;PMS5003;36494;50.730;-1.932;2022-12-04T07:07:07;38;37;
49644;PMS5003;36494;50.730;-1.932;2022-12-04T07:09:33;37;36;
49644;PMS5003;36494;50.730;-1.932;2022-12-04T07:11:58;40;39;
49644;PMS5003;36494;50.730;-1.932;2022-12-04T07:14:23;42;38;
49644;PMS5003;36494;50.730;-1.932;2022-12-04T07:16:49;36;33;
49644;PMS5003;36494;50.730;-1.932;2022-12-04T07:19:15;36;34;
49644;PMS5003;36494;50.730;-1.932;2022-12-04T07:21:41;39;37;
49644;PMS5003;36494;50.730;-1.932;2022-12-04T07:24:06;40;38;
49644;PMS5003;36494;50.730;-1.932;2022-12-04T07:26:32;38;35;
49644;PMS5003;36494;50.730;-1.932;2022-12-04T07:28:57;45;41;
49644;PMS5003;36494;50.730;-1.932;2022-12-04T07:31:23;43;41;
49644;PMS5003;36494;50.730;-1.932;2022-12-04T07:33:49;40;37;
49644;PMS5003;36494;50.730;-1.932;2022-12-04T07:36:14;42;39;
49644;PMS5003;36494;50.730;-1.932;2022-12-04T07:38:39;39;37;
49644;PMS5003;36494;50.730;-1.932;2022-12-04T07:41:05;44;39;
49644;PMS5003;36494;50.730;-1.932;2022-12-04T07:43:30;41;38;
49644;PMS5003;36494;50.730;-1.932;2022-12-04T07:45:56;40;37;
49644;PMS5003;36494;50.730;-1.932;2022-12-04T07:48:21;46;43;
49644;PMS5003;36494;50.730;-1.932;2022-12-04T07:50:46;45;43;
49644;PMS5003;36494;50.730;-1.932;2022-12-04T07:53:11;44;38;
49644;PMS5003;36494;50.730;-1.932;2022-12-04T07:55:37;46;44;
49644;PMS5003;36494;50.730;-1.932;2022-12-04T07:58:02;44;39;
49644;PMS5003;36494;50.730;-1.932;2022-12-04T08:00:27;50;43;
49644;PMS5003;36494;50.730;-1.932;2022-12-04T08:02:53;40;37;
49644;PMS5003;36494;50.730;-1.932;2022-12-04T08:05:18;43;40;
49644;PMS5003;36494;50.730;-1.932;2022-12-04T08:07:44;45;38;
49644;PMS5003;36494;50.730;-1.932;2022-12-04T08:10:10;42;40;
49644;PMS5003;36494;50.730;-1.932;2022-12-04T08:12:35;42;40;
49644;PMS5003;36494;50.730;-1.932;2022-12-04T08:15:01;45;43;
49644;PMS5003;36494;50.730;-1.932;2022-12-04T08:17:26;49;46;
49644;PMS5003;36494;50.730;-1.932;2022-12-04T08:19:51;44;41;
49644;PMS5003;36494;50.730;-1.932;2022-12-04T08:22:17;47;41;
49644;PMS5003;36494;50.730;-1.932;2022-12-04T08:24:43;44;42;
49644;PMS5003;36494;50.730;-1.932;2022-12-04T08:27:08;50;42;
49644;PMS5003;36494;50.730;-1.932;2022-12-04T08:29:34;42;40;
49644;PMS5003;36494;50.730;-1.932;2022-12-04T08:31:59;50;44;
49644;PMS5003;36494;50.730;-1.932;2022-12-04T08:34:24;42;39;
49644;PMS5003;36494;50.730;-1.932;2022-12-04T08:36:50;40;39;
49644;PMS5003;36494;50.730;-1.932;2022-12-04T08:39:15;45;43;
49644;PMS5003;36494;50.730;-1.932;2022-12-04T08:41:40;41;38;
49644;PMS5003;36494;50.730;-1.932;2022-12-04T08:44:06;43;41;
49644;PMS5003;36494;50.730;-1.932;2022-12-04T08:46:32;48;46;
49644;PMS5003;36494;50.730;-1.932;2022-12-04T08:48:57;47;43;
49644;PMS5003;36494;50.730;-1.932;2022-12-04T08:51:23;41;40;
49644;PMS5003;36494;50.730;-1.932;2022-12-04T08:53:52;48;45;
49644;PMS5003;36494;50.730;-1.932;2022-12-04T08:56:14;52;44;
49644;PMS5003;36494;50.730;-1.932;2022-12-04T08:58:39;46;45;
49644;PMS5003;36494;50.730;-1.932;2022-12-04T09:01:05;45;44;
49644;PMS5003;36494;50.730;-1.932;2022-12-04T09:03:29;47;45;
49644;PMS5003;36494;50.730;-1.932;2022-12-04T09:05:57;42;39;
49644;PMS5003;36494;50.730;-1.932;2022-12-04T09:08:19;46;45;
49644;PMS5003;36494;50.730;-1.932;2022-12-04T09:10:45;45;41;
49644;PMS5003;36494;50.730;-1.932;2022-12-04T09:13:10;52;46;
49644;PMS5003;36494;50.730;-1.932;2022-12-04T09:15:37;47;44;
49644;PMS5003;36494;50.730;-1.932;2022-12-04T09:18:01;46;43;
49644;PMS5003;36494;50.730;-1.932;2022-12-04T09:20:26;44;38;
49644;PMS5003;36494;50.730;-1.932;2022-12-04T09:22:52;48;45;
49644;PMS5003;36494;50.730;-1.932;2022-12-04T09:25:18;42;39;
49644;PMS5003;36494;50.730;-1.932;2022-12-04T09:27:44;55;52;
49644;PMS5003;36494;50.730;-1.932;2022-12-04T09:30:09;47;45;
49644;PMS5003;36494;50.730;-1.932;2022-12-04T09:32:34;47;43;
49644;PMS5003;36494;50.730;-1.932;2022-12-04T09:34:59;51;49;
49644;PMS5003;36494;50.730;-1.932;2022-12-04T09:37:24;43;40;
49644;PMS5003;36494;50.730;-1.932;2022-12-04T09:39:50;56;47;
49644;PMS5003;36494;50.730;-1.932;2022-12-04T09:42:19;45;42;
49644;PMS5003;36494;50.730;-1.932;2022-12-04T09:44:42;45;44;
49644;PMS5003;36494;50.730;-1.932;2022-12-04T09:47:09;47;42;
49644;PMS5003;36494;50.730;-1.932;2022-12-04T09:49:34;47;45;
49644;PMS5003;36494;50.730;-1.932;2022-12-04T09:51:59;55;49;
49644;PMS5003;36494;50.730;-1.932;2022-12-04T09:54:26;55;49;
49644;PMS5003;36494;50.730;-1.932;2022-12-04T09:56:50;51;48;
49644;PMS5003;36494;50.730;-1.932;2022-12-04T09:59:16;50;46;
49644;PMS5003;36494;50.730;-1.932;2022-12-04T10:01:42;49;44;
49644;PMS5003;36494;50.730;-1.932;2022-12-04T10:04:05;51;45;
49644;PMS5003;36494;50.730;-1.932;2022-12-04T10:06:32;48;45;
49644;PMS5003;36494;50.730;-1.932;2022-12-04T10:08:59;46;43;
49644;PMS5003;36494;50.730;-1.932;2022-12-04T10:11:22;56;51;
49644;PMS5003;36494;50.730;-1.932;2022-12-04T10:13:53;56;53;
49644;PMS5003;36494;50.730;-1.932;2022-12-04T10:16:13;60;50;
49644;PMS5003;36494;50.730;-1.932;2022-12-04T10:18:42;59;54;
49644;PMS5003;36494;50.730;-1.932;2022-12-04T10:21:07;51;46;
49644;PMS5003;36494;50.730;-1.932;2022-12-04T10:23:30;55;52;
49644;PMS5003;36494;50.730;-1.932;2022-12-04T10:25:54;54;49;
49644;PMS5003;36494;50.730;-1.932;2022-12-04T10:28:21;53;46;
49644;PMS5003;36494;50.730;-1.932;2022-12-04T10:30:46;59;54;
49644;PMS5003;36494;50.730;-1.932;2022-12-04T10:33:14;53;50;
49644;PMS5003;36494;50.730;-1.932;2022-12-04T10:35:36;56;52;
49644;PMS5003;36494;50.730;-1.932;2022-12-04T10:38:03;56;52;
49644;PMS5003;36494;50.730;-1.932;2022-12-04T10:40:29;57;48;
49644;PMS5003;36494;50.730;-1.932;2022-12-04T10:42:52;53;50;
49644;PMS5003;36494;50.730;-1.932;2022-12-04T10:45:17;51;47;
49644;PMS5003;36494;50.730;-1.932;2022-12-04T10:47:44;55;51;
49644;PMS5003;36494;50.730;-1.932;2022-12-04T10:52:33;60;56;
49644;PMS5003;36494;50.730;-1.932;2022-12-04T10:55:00;57;55;
49644;PMS5003;36494;50.730;-1.932;2022-12-04T10:59:51;52;48;
49644;PMS5003;36494;50.730;-1.932;2022-12-04T11:02:18;49;45;
49644;PMS5003;36494;50.730;-1.932;2022-12-04T11:04:41;60;54;
49644;PMS5003;36494;50.730;-1.932;2022-12-04T11:07:07;57;50;
49644;PMS5003;36494;50.730;-1.932;2022-12-04T11:09:32;56;51;
49644;PMS5003;36494;50.730;-1.932;2022-12-04T11:14:22;50;49;
49644;PMS5003;36494;50.730;-1.932;2022-12-04T11:16:49;55;53;
49644;PMS5003;36494;50.730;-1.932;2022-12-04T11:19:18;50;46;
49644;PMS5003;36494;50.730;-1.932;2022-12-04T11:21:38;44;43;
49644;PMS5003;36494;50.730;-1.932;2022-12-04T11:24:04;50;48;
49644;PMS5003;36494;50.730;-1.932;2022-12-04T11:26:30;40;39;
49644;PMS5003;36494;50.730;-1.932;2022-12-04T11:28:55;35;33;
49644;PMS5003;36494;50.730;-1.932;2022-12-04T11:31:21;41;39;
49644;PMS5003;36494;50.730;-1.932;2022-12-04T11:33:47;42;40;
49644;PMS5003;36494;50.730;-1.932;2022-12-04T11:36:16;35;34;
49644;PMS5003;36494;50.730;-1.932;2022-12-04T11:38:37;46;44;
49644;PMS5003;36494;50.730;-1.932;2022-12-04T11:41:03;42;39;
49644;PMS5003;36494;50.730;-1.932;2022-12-04T11:43:28;46;44;
49644;PMS5003;36494;50.730;-1.932;2022-12-04T11:45:54;46;39;
49644;PMS5003;36494;50.730;-1.932;2022-12-04T11:48:18;49;47;
49644;PMS5003;36494;50.730;-1.932;2022-12-04T11:50:45;41;37;
49644;PMS5003;36494;50.730;-1.932;2022-12-04T11:53:13;47;45;
49644;PMS5003;36494;50.730;-1.932;2022-12-04T11:55:36;50;46;
49644;PMS5003;36494;50.730;-1.932;2022-12-04T11:58:05;47;46;
49644;PMS5003;36494;50.730;-1.932;2022-12-04T12:00:25;41;39;
49644;PMS5003;36494;50.730;-1.932;2022-12-04T12:02:55;41;40;
49644;PMS5003;36494;50.730;-1.932;2022-12-04T12:05:17;48;42;
49644;PMS5003;36494;50.730;-1.932;2022-12-04T12:07:43;41;40;
49644;PMS5003;36494;50.730;-1.932;2022-12-04T12:10:09;41;39;
49644;PMS5003;36494;50.730;-1.932;2022-12-04T12:12:36;39;36;
49644;PMS5003;36494;50.730;-1.932;2022-12-04T12:15:01;48;45;
49644;PMS5003;36494;50.730;-1.932;2022-12-04T12:17:24;48;46;
49644;PMS5003;36494;50.730;-1.932;2022-12-04T12:22:16;44;41;
49644;PMS5003;36494;50.730;-1.932;2022-12-04T12:24:42;44;42;
49644;PMS5003;36494;50.730;-1.932;2022-12-04T12:27:13;47;46;
49644;PMS5003;36494;50.730;-1.932;2022-12-04T12:29:34;48;43;
49644;PMS5003;36494;50.730;-1.932;2022-12-04T12:32:01;42;39;
49644;PMS5003;36494;50.730;-1.932;2022-12-04T12:34:25;46;45;
49644;PMS5003;36494;50.730;-1.932;2022-12-04T12:36:48;46;41;
49644;PMS5003;36494;50.730;-1.932;2022-12-04T12:39:14;45;45;
49644;PMS5003;36494;50.730;-1.932;2022-12-04T12:41:38;56;52;
49644;PMS5003;36494;50.730;-1.932;2022-12-04T12:44:06;49;43;
49644;PMS5003;36494;50.730;-1.932;2022-12-04T12:46:30;46;44;
49644;PMS5003;36494;50.730;-1.932;2022-12-04T12:48:56;47;44;
49644;PMS5003;36494;50.730;-1.932;2022-12-04T12:51:25;52;48;
49644;PMS5003;36494;50.730;-1.932;2022-12-04T12:53:46;47;46;
49644;PMS5003;36494;50.730;-1.932;2022-12-04T12:56:11;45;43;
49644;PMS5003;36494;50.730;-1.932;2022-12-04T12:58:38;45;40;
49644;PMS5003;36494;50.730;-1.932;2022-12-04T13:01:04;55;53;
49644;PMS5003;36494;50.730;-1.932;2022-12-04T13:03:31;40;38;
49644;PMS5003;36494;50.730;-1.932;2022-12-04T13:05:54;56;51;
49644;PMS5003;36494;50.730;-1.932;2022-12-04T13:08:20;46;44;
49644;PMS5003;36494;50.730;-1.932;2022-12-04T13:10:45;42;41;
49644;PMS5003;36494;50.730;-1.932;2022-12-04T13:13:12;47;44;
49644;PMS5003;36494;50.730;-1.932;2022-12-04T13:15:37;52;50;
49644;PMS5003;36494;50.730;-1.932;2022-12-04T13:18:00;42;42;
49644;PMS5003;36494;50.730;-1.932;2022-12-04T13:20:27;46;43;
49644;PMS5003;36494;50.730;-1.932;2022-12-04T13:22:55;51;50;
49644;PMS5003;36494;50.730;-1.932;2022-12-04T13:25:21;45;41;
49644;PMS5003;36494;50.730;-1.932;2022-12-04T13:27:45;48;43;
49644;PMS5003;36494;50.730;-1.932;2022-12-04T13:30:09;48;47;
49644;PMS5003;36494;50.730;-1.932;2022-12-04T13:34:58;65;64;
49644;PMS5003;36494;50.730;-1.932;2022-12-04T13:37:28;51;50;
49644;PMS5003;36494;50.730;-1.932;2022-12-04T13:42:17;50;46;
49644;PMS5003;36494;50.730;-1.932;2022-12-04T13:44:39;41;38;
49644;PMS5003;36494;50.730;-1.932;2022-12-04T13:47:06;50;49;
49644;PMS5003;36494;50.730;-1.932;2022-12-04T13:49:31;44;41;
49644;PMS5003;36494;50.730;-1.932;2022-12-04T13:51:57;57;55;
49644;PMS5003;36494;50.730;-1.932;2022-12-04T13:54:26;66;64;
49644;PMS5003;36494;50.730;-1.932;2022-12-04T13:56:48;72;65;
49644;PMS5003;36494;50.730;-1.932;2022-12-04T14:01:39;38;38;
49644;PMS5003;36494;50.730;-1.932;2022-12-04T14:04:04;49;44;
49644;PMS5003;36494;50.730;-1.932;2022-12-04T14:06:32;112;111;
49644;PMS5003;36494;50.730;-1.932;2022-12-04T14:08:54;66;62;
49644;PMS5003;36494;50.730;-1.932;2022-12-04T14:11:19;54;52;
49644;PMS5003;36494;50.730;-1.932;2022-12-04T14:13:45;55;53;
49644;PMS5003;36494;50.730;-1.932;2022-12-04T14:18:35;53;47;
49644;PMS5003;36494;50.730;-1.932;2022-12-04T14:21:01;60;59;
49644;PMS5003;36494;50.730;-1.932;2022-12-04T14:25:52;64;60;
49644;PMS5003;36494;50.730;-1.932;2022-12-04T14:30:42;64;60;
49644;PMS5003;36494;50.730;-1.932;2022-12-04T14:33:08;69;65;
49644;PMS5003;36494;50.730;-1.932;2022-12-04T14:35:32;68;66;
49644;PMS5003;36494;50.730;-1.932;2022-12-04T14:37:59;78;72;
49644;PMS5003;36494;50.730;-1.932;2022-12-04T14:40:24;61;58;
49644;PMS5003;36494;50.730;-1.932;2022-12-04T14:42:48;56;53;
49644;PMS5003;36494;50.730;-1.932;2022-12-04T14:45:17;64;62;
49644;PMS5003;36494;50.730;-1.932;2022-12-04T14:47:39;63;60;
49644;PMS5003;36494;50.730;-1.932;2022-12-04T14:50:14;64;61;
49644;PMS5003;36494;50.730;-1.932;2022-12-04T14:52:30;71;64;
49644;PMS5003;36494;50.730;-1.932;2022-12-04T14:54:55;51;48;
49644;PMS5003;36494;50.730;-1.932;2022-12-04T14:57:23;60;56;
49644;PMS5003;36494;50.730;-1.932;2022-12-04T14:59:46;66;61;
49644;PMS5003;36494;50.730;-1.932;2022-12-04T15:02:12;45;44;
49644;PMS5003;36494;50.730;-1.932;2022-12-04T15:04:36;68;64;
49644;PMS5003;36494;50.730;-1.932;2022-12-04T15:07:02;75;72;
49644;PMS5003;36494;50.730;-1.932;2022-12-04T15:09:28;60;57;
49644;PMS5003;36494;50.730;-1.932;2022-12-04T15:11:53;68;61;
49644;PMS5003;36494;50.730;-1.932;2022-12-04T15:14:19;69;64;
49644;PMS5003;36494;50.730;-1.932;2022-12-04T15:16:44;73;69;
49644;PMS5003;36494;50.730;-1.932;2022-12-04T15:19:14;65;61;
49644;PMS5003;36494;50.730;-1.932;2022-12-04T15:21:35;67;64;
49644;PMS5003;36494;50.730;-1.932;2022-12-04T15:23:59;64;62;
49644;PMS5003;36494;50.730;-1.932;2022-12-04T15:26:25;77;72;
49644;PMS5003;36494;50.730;-1.932;2022-12-04T15:28:51;79;78;
49644;PMS5003;36494;50.730;-1.932;2022-12-04T15:31:16;66;63;
49644;PMS5003;36494;50.730;-1.932;2022-12-04T15:33:41;71;66;
49644;PMS5003;36494;50.730;-1.932;2022-12-04T15:36:07;63;59;
49644;PMS5003;36494;50.730;-1.932;2022-12-04T15:38:31;60;57;
49644;PMS5003;36494;50.730;-1.932;2022-12-04T15:40:58;95;83;
49644;PMS5003;36494;50.730;-1.932;2022-12-04T15:43:26;71;67;
49644;PMS5003;36494;50.730;-1.932;2022-12-04T15:45:48;78;72;
49644;PMS5003;36494;50.730;-1.932;2022-12-04T15:50:38;70;68;
49644;PMS5003;36494;50.730;-1.932;2022-12-04T15:53:06;64;64;
49644;PMS5003;36494;50.730;-1.932;2022-12-04T15:55:30;84;78;
49644;PMS5003;36494;50.730;-1.932;2022-12-04T15:57:55;83;80;
49644;PMS5003;36494;50.730;-1.932;2022-12-04T16:00:22;75;68;
49644;PMS5003;36494;50.730;-1.932;2022-12-04T16:02:46;114;110;
49644;PMS5003;36494;50.730;-1.932;2022-12-04T16:05:12;92;86;
49644;PMS5003;36494;50.730;-1.932;2022-12-04T16:07:46;70;66;
49644;PMS5003;36494;50.730;-1.932;2022-12-04T16:10:02;71;68;
49644;PMS5003;36494;50.730;-1.932;2022-12-04T16:12:28;73;70;
49644;PMS5003;36494;50.730;-1.932;2022-12-04T16:14:53;72;68;
49644;PMS5003;36494;50.730;-1.932;2022-12-04T16:17:18;67;64;